Time;durP1;ratioP1;P1;durP2;ratioP2;P2;SDS_P1;SDS_P2;PMS_P1;PMS_P2;Temp;Humidity;BMP_temperature;BMP_pressure;BME280_temperature;BME280_humidity;BME280_pressure;Samples;Min_cycle;Max_cycle;Signal;HPM_P1;HPM_P2
2022/11/19 00:03:54;;;;;;;3.58;1.90;;;19.50;76.50;;;;;;10492884;28;20052;-34
2022/11/19 00:08:56;;;;;;;5.70;2.30;;;19.50;76.50;;;;;;10501862;28;20451;-30
2022/11/19 00:13:58;;;;;;;5.40;2.28;;;19.50;76.50;;;;;;10492108;28;20083;-33
2022/11/19 00:19:01;;;;;;;3.40;2.00;;;19.50;76.40;;;;;;10493462;28;20106;-28
2022/11/19 00:24:03;;;;;;;4.75;1.98;;;19.50;76.20;;;;;;10492098;28;20123;-31
2022/11/19 00:29:05;;;;;;;2.58;1.70;;;19.50;76.50;;;;;;10488864;28;20098;-29
2022/11/19 00:34:10;;;;;;;2.00;1.42;;;19.40;76.30;;;;;;10491562;28;20485;-28
2022/11/19 00:39:12;;;;;;;3.00;1.83;;;19.40;76.60;;;;;;10491138;28;20125;-27
2022/11/19 00:44:13;;;;;;;2.63;1.90;;;19.40;76.10;;;;;;10481777;28;20053;-28
2022/11/19 00:49:17;;;;;;;4.10;1.45;;;19.40;76.20;;;;;;10494246;28;20464;-30
2022/11/19 00:54:19;;;;;;;4.07;1.95;;;19.40;76.10;;;;;;10494781;28;20041;-31
2022/11/19 00:59:21;;;;;;;2.95;1.90;;;19.40;76.30;;;;;;10486229;28;20049;-28
2022/11/19 01:04:24;;;;;;;3.22;1.50;;;19.40;76.10;;;;;;10485115;28;20061;-36
2022/11/19 01:09:28;;;;;;;3.45;2.38;;;19.40;76.20;;;;;;10478294;28;20098;-28
2022/11/19 01:14:30;;;;;;;2.38;1.63;;;19.40;76.00;;;;;;10496187;28;20087;-29
2022/11/19 01:19:33;;;;;;;2.80;2.20;;;19.40;75.80;;;;;;10491644;28;20430;-31
2022/11/19 01:24:35;;;;;;;2.65;2.03;;;19.40;75.90;;;;;;10497808;28;20045;-29
2022/11/19 01:29:37;;;;;;;2.65;2.05;;;19.40;75.80;;;;;;10497841;28;20481;-28
2022/11/19 01:34:40;;;;;;;3.60;2.25;;;19.40;76.20;;;;;;10489693;28;20478;-30
2022/11/19 01:39:42;;;;;;;3.13;2.10;;;19.30;75.70;;;;;;10500854;28;20049;-33
2022/11/19 01:45:05;;;;;;;2.70;1.80;;;19.30;75.90;;;;;;10490349;28;20382;-32
2022/11/19 01:50:09;;;;;;;2.95;2.08;;;19.30;75.60;;;;;;10484984;28;20604;-31
2022/11/19 01:55:11;;;;;;;2.13;1.63;;;19.30;75.40;;;;;;10482384;28;20102;-30
2022/11/19 02:00:14;;;;;;;2.75;1.98;;;19.30;75.30;;;;;;10478904;28;20549;-30
2022/11/19 02:05:18;;;;;;;2.78;2.10;;;19.30;75.60;;;;;;10476945;28;20045;-30
2022/11/19 02:10:22;;;;;;;2.38;2.13;;;19.30;75.60;;;;;;10476114;28;20045;-31
2022/11/19 02:15:33;;;;;;;3.08;1.70;;;19.20;75.20;;;;;;10489761;28;20139;-28
2022/11/19 02:20:45;;;;;;;2.88;2.13;;;19.20;75.40;;;;;;10485641;28;20371;-28
2022/11/19 02:26:05;;;;;;;1.95;1.70;;;19.20;75.50;;;;;;10485229;28;20079;-30
2022/11/19 02:31:11;;;;;;;3.35;2.10;;;19.20;75.30;;;;;;10483226;28;20045;-29
2022/11/19 02:36:21;;;;;;;1.98;1.48;;;19.20;75.20;;;;;;10472957;28;20078;-26
2022/11/19 02:41:36;;;;;;;2.78;1.80;;;19.20;75.20;;;;;;10495458;28;20116;-31
2022/11/19 02:46:40;;;;;;;4.97;2.03;;;19.20;74.80;;;;;;10482142;28;20039;-29
2022/11/19 02:51:43;;;;;;;3.30;2.08;;;19.20;75.00;;;;;;10488140;28;20497;-29
2022/11/19 02:56:48;;;;;;;2.40;1.75;;;19.20;74.70;;;;;;10493539;28;20057;-28
2022/11/19 03:07:15;;;;;;;2.45;1.83;;;19.10;75.00;;;;;;10486901;28;20056;-28
2022/11/19 03:12:22;;;;;;;2.00;1.70;;;19.10;74.70;;;;;;10482873;28;20106;-28
2022/11/19 03:17:31;;;;;;;2.22;1.70;;;19.10;74.60;;;;;;10488866;28;20051;-28
2022/11/19 03:22:39;;;;;;;2.25;2.00;;;19.10;74.80;;;;;;10475205;28;20185;-29
2022/11/19 03:27:43;;;;;;;1.98;1.60;;;19.10;74.60;;;;;;10508639;28;20496;-28
2022/11/19 03:32:50;;;;;;;2.78;1.58;;;19.10;74.40;;;;;;10494918;28;20045;-30
2022/11/19 03:37:57;;;;;;;2.10;1.70;;;19.10;74.50;;;;;;10496369;28;20076;-31
2022/11/19 03:43:00;;;;;;;2.60;1.52;;;19.10;74.50;;;;;;10486127;28;20504;-28
2022/11/19 03:48:05;;;;;;;1.80;1.70;;;19.10;74.30;;;;;;10493570;28;20131;-30
2022/11/19 03:53:07;;;;;;;2.53;1.85;;;19.10;74.20;;;;;;10495056;28;20076;-31
2022/11/19 03:58:10;;;;;;;1.85;1.40;;;19.00;74.00;;;;;;10495179;28;20143;-28
2022/11/19 04:03:14;;;;;;;3.88;2.30;;;19.00;73.90;;;;;;10493709;28;20076;-32
2022/11/19 04:08:15;;;;;;;3.50;2.10;;;19.00;73.90;;;;;;10507187;28;20053;-29
2022/11/19 04:13:17;;;;;;;1.98;1.60;;;18.90;73.90;;;;;;10499726;28;20505;-27
2022/11/19 04:18:20;;;;;;;2.25;1.80;;;19.00;73.80;;;;;;10501397;28;20110;-28
2022/11/19 04:23:22;;;;;;;2.25;1.70;;;19.00;73.80;;;;;;10497672;28;20045;-28
2022/11/19 04:28:24;;;;;;;3.30;1.75;;;18.90;73.70;;;;;;10487133;28;20064;-28
2022/11/19 04:33:27;;;;;;;3.83;1.98;;;18.90;73.50;;;;;;10499485;28;20070;-25
2022/11/19 04:38:29;;;;;;;1.83;1.58;;;18.90;73.40;;;;;;10489861;28;20414;-29
2022/11/19 04:43:31;;;;;;;2.10;1.80;;;18.90;73.10;;;;;;10483033;28;20125;-29
2022/11/19 04:48:34;;;;;;;2.13;1.50;;;18.90;73.10;;;;;;10496358;28;20048;-28
2022/11/19 04:53:37;;;;;;;2.33;1.67;;;18.90;73.00;;;;;;10488109;28;20056;-27
2022/11/19 04:58:38;;;;;;;2.53;1.70;;;18.80;73.00;;;;;;10492118;28;20082;-27
2022/11/19 05:03:42;;;;;;;1.67;1.42;;;18.90;72.80;;;;;;10487563;28;20477;-27
2022/11/19 05:08:43;;;;;;;2.15;1.65;;;18.90;72.60;;;;;;10486265;28;20142;-29
2022/11/19 05:13:45;;;;;;;1.85;1.75;;;18.90;72.50;;;;;;10481661;28;20535;-29
2022/11/19 05:18:48;;;;;;;2.57;1.77;;;18.90;72.30;;;;;;10488656;28;20063;-30
2022/11/19 05:23:50;;;;;;;2.63;2.10;;;18.80;72.20;;;;;;10488293;28;21088;-31
2022/11/19 05:28:52;;;;;;;2.75;2.17;;;18.80;72.20;;;;;;10486812;28;20048;-30
2022/11/19 05:33:55;;;;;;;2.22;1.55;;;18.80;72.40;;;;;;10486537;28;20134;-29
2022/11/19 05:38:57;;;;;;;4.53;2.80;;;18.80;72.20;;;;;;10491598;28;20060;-30
2022/11/19 05:43:59;;;;;;;5.22;2.00;;;18.80;72.00;;;;;;10488491;28;20440;-30
2022/11/19 05:49:02;;;;;;;2.25;2.03;;;18.80;72.10;;;;;;10489186;28;20299;-31
2022/11/19 05:54:05;;;;;;;2.67;1.90;;;18.80;71.90;;;;;;10484493;28;20044;-31
2022/11/19 05:59:06;;;;;;;3.05;2.25;;;18.80;72.70;;;;;;10489408;28;20052;-29
2022/11/19 06:04:10;;;;;;;2.38;1.85;;;18.70;71.80;;;;;;10488171;28;20056;-31
2022/11/19 06:09:12;;;;;;;4.25;2.33;;;18.70;72.10;;;;;;10483677;28;20072;-30
2022/11/19 06:14:14;;;;;;;6.40;2.40;;;18.70;71.50;;;;;;10486093;28;20053;-34
2022/11/19 06:19:18;;;;;;;2.22;2.03;;;18.80;71.30;;;;;;10483061;28;20129;-29
2022/11/19 06:24:20;;;;;;;2.92;2.38;;;18.70;71.50;;;;;;10485948;28;20165;-28
2022/11/19 06:29:22;;;;;;;2.65;2.10;;;18.70;71.30;;;;;;10496194;28;20051;-28
2022/11/19 06:34:26;;;;;;;4.15;2.60;;;18.70;71.30;;;;;;10483968;28;20048;-29
2022/11/19 06:39:28;;;;;;;2.50;2.22;;;18.80;70.90;;;;;;10481341;28;20536;-28
2022/11/19 06:44:29;;;;;;;3.40;2.65;;;18.80;70.90;;;;;;10483726;28;20191;-27
2022/11/19 06:49:33;;;;;;;3.08;2.50;;;18.80;71.20;;;;;;10480019;28;20571;-29
2022/11/19 06:54:34;;;;;;;4.70;2.20;;;18.80;70.90;;;;;;10487972;28;20131;-29
2022/11/19 06:59:37;;;;;;;7.25;3.67;;;18.80;70.90;;;;;;10483848;28;20083;-30
2022/11/19 07:15:31;;;;;;;3.22;2.60;;;18.80;70.20;;;;;;10497137;27;20459;-30
2022/11/19 07:20:33;;;;;;;3.55;2.58;;;18.80;70.40;;;;;;10510743;28;20059;-31
2022/11/19 07:25:35;;;;;;;3.97;2.78;;;18.80;70.60;;;;;;10516006;28;20056;-27
2022/11/19 07:30:38;;;;;;;3.47;2.60;;;18.80;70.30;;;;;;10519263;28;20143;-30
2022/11/19 07:35:40;;;;;;;3.92;3.33;;;18.60;70.70;;;;;;10518144;28;20036;-32
2022/11/19 07:40:42;;;;;;;3.00;2.70;;;18.80;70.00;;;;;;10534316;28;20077;-30
2022/11/19 07:45:45;;;;;;;6.00;3.05;;;18.80;69.90;;;;;;10521271;28;20067;-30
2022/11/19 07:50:51;;;;;;;7.30;3.10;;;18.70;69.90;;;;;;10528813;28;20048;-30
2022/11/19 07:55:53;;;;;;;4.57;3.08;;;18.70;69.90;;;;;;10528336;28;20055;-28
2022/11/19 08:00:56;;;;;;;3.55;2.85;;;18.70;70.00;;;;;;10514488;28;20143;-28
2022/11/19 08:05:58;;;;;;;5.18;3.22;;;18.70;70.10;;;;;;10527957;28;20048;-28
2022/11/19 08:11:04;;;;;;;4.38;2.50;;;18.70;70.10;;;;;;10517152;28;20143;-26
2022/11/19 08:16:08;;;;;;;5.13;2.80;;;18.70;70.20;;;;;;10512151;28;20052;-33
2022/11/19 08:21:11;;;;;;;3.92;2.83;;;18.80;69.90;;;;;;10520618;28;20071;-28
2022/11/19 08:26:13;;;;;;;6.28;3.10;;;18.80;69.70;;;;;;10494584;28;20048;-28
2022/11/19 08:31:17;;;;;;;4.13;3.15;;;18.90;69.50;;;;;;10486745;28;20072;-29
2022/11/19 08:36:19;;;;;;;3.30;3.00;;;19.00;69.00;;;;;;10490766;28;20140;-28
2022/11/19 08:46:41;;;;;;;4.90;3.35;;;19.00;69.40;;;;;;10477872;28;20523;-29
2022/11/19 08:51:43;;;;;;;4.60;3.50;;;19.00;69.60;;;;;;10485455;28;20470;-30
2022/11/19 08:56:45;;;;;;;4.97;3.13;;;19.00;69.30;;;;;;10487187;28;20076;-34
2022/11/19 09:01:49;;;;;;;4.13;3.05;;;18.90;69.50;;;;;;10493683;28;20721;-31
2022/11/19 09:06:51;;;;;;;3.92;3.10;;;19.00;69.30;;;;;;10490490;28;20444;-29
2022/11/19 09:11:54;;;;;;;5.10;3.42;;;19.00;68.80;;;;;;10478627;28;20065;-33
2022/11/19 09:16:57;;;;;;;8.02;3.50;;;19.10;68.60;;;;;;10482795;28;20075;-32
2022/11/19 09:21:59;;;;;;;5.88;2.88;;;19.10;68.80;;;;;;10488762;28;20209;-33
2022/11/19 09:27:01;;;;;;;9.50;3.25;;;19.20;68.50;;;;;;10492891;28;20056;-29
2022/11/19 09:32:05;;;;;;;4.80;2.95;;;19.20;68.20;;;;;;10491681;28;20148;-29
2022/11/19 09:37:07;;;;;;;4.25;3.30;;;19.30;67.90;;;;;;10489388;28;20073;-31
2022/11/19 09:42:16;;;;;;;7.13;3.13;;;19.30;67.70;;;;;;10487715;28;20044;-31
2022/11/19 09:47:30;;;;;;;3.70;3.00;;;19.30;67.30;;;;;;10492724;28;20048;-27
2022/11/19 09:52:36;;;;;;;7.57;3.50;;;19.30;66.90;;;;;;10491972;28;20052;-30
2022/11/19 09:57:47;;;;;;;6.78;3.10;;;19.30;66.60;;;;;;10479079;28;20040;-34
2022/11/19 10:02:52;;;;;;;4.68;3.15;;;19.30;66.40;;;;;;10472803;28;20135;-30
2022/11/19 10:08:04;;;;;;;5.55;3.85;;;19.40;65.90;;;;;;10480566;28;20068;-29
2022/11/19 10:13:32;;;;;;;4.47;2.78;;;19.40;65.60;;;;;;10482220;28;20409;-27
2022/11/19 10:18:43;;;;;;;4.38;3.13;;;19.40;65.40;;;;;;10486182;28;20045;-30
2022/11/19 10:23:51;;;;;;;4.33;3.10;;;19.40;65.30;;;;;;10485754;28;20052;-29
2022/11/19 10:28:56;;;;;;;4.25;2.92;;;19.40;65.50;;;;;;10507923;28;20045;-32
2022/11/19 10:34:06;;;;;;;4.35;3.03;;;19.40;65.40;;;;;;10472548;28;20531;-30
2022/11/19 10:39:16;;;;;;;7.22;3.30;;;19.40;65.30;;;;;;10497537;28;20045;-27
2022/11/19 10:44:42;;;;;;;7.10;2.90;;;19.40;65.20;;;;;;10468646;28;20063;-29
2022/11/19 10:49:45;;;;;;;5.43;3.50;;;19.30;65.40;;;;;;10489586;28;20086;-28
2022/11/19 10:54:48;;;;;;;7.70;3.30;;;19.40;65.00;;;;;;10487286;28;20049;-29
2022/11/19 10:59:52;;;;;;;11.77;3.40;;;19.40;64.70;;;;;;10480166;28;20442;-29
2022/11/19 11:05:06;;;;;;;14.40;2.83;;;19.50;64.70;;;;;;10479230;28;20040;-29
2022/11/19 11:10:28;;;;;;;7.57;2.80;;;19.50;64.90;;;;;;10481508;28;20052;-30
2022/11/19 11:15:30;;;;;;;4.22;3.03;;;19.40;64.60;;;;;;10485647;28;20044;-29
2022/11/19 11:20:35;;;;;;;6.82;3.30;;;19.40;64.80;;;;;;10480423;28;20473;-29
2022/11/19 11:25:39;;;;;;;4.10;3.00;;;19.40;64.60;;;;;;10472797;28;20059;-33
2022/11/19 11:30:52;;;;;;;4.53;2.85;;;19.40;64.50;;;;;;10479575;28;20044;-28
2022/11/19 11:35:57;;;;;;;3.80;2.70;;;19.60;63.50;;;;;;10493937;28;20040;-32
2022/11/19 11:41:05;;;;;;;7.35;3.17;;;19.50;64.10;;;;;;10476105;28;20453;-31
2022/11/19 11:46:09;;;;;;;4.13;2.70;;;19.50;63.80;;;;;;10487004;28;20052;-28
2022/11/19 11:51:28;;;;;;;5.40;2.80;;;19.50;63.80;;;;;;10482818;28;20041;-29
2022/11/19 11:56:30;;;;;;;4.70;3.38;;;19.50;63.60;;;;;;10470733;28;20041;-26
2022/11/19 12:01:33;;;;;;;5.80;3.17;;;19.50;63.60;;;;;;10480666;28;20051;-32
2022/11/19 12:06:43;;;;;;;5.15;3.13;;;19.50;63.20;;;;;;10483921;28;20127;-28
2022/11/19 12:11:56;;;;;;;4.75;2.75;;;19.50;63.20;;;;;;10491764;28;20193;-29
2022/11/19 12:17:15;;;;;;;4.50;3.20;;;19.50;62.90;;;;;;10481207;28;20041;-28
2022/11/19 12:22:30;;;;;;;3.30;2.85;;;19.50;62.80;;;;;;10487736;28;20127;-29
2022/11/19 12:27:38;;;;;;;4.82;2.40;;;19.50;62.50;;;;;;10476931;28;20561;-30
2022/11/19 12:32:57;;;;;;;3.97;2.50;;;19.60;61.90;;;;;;10481159;28;20055;-29
2022/11/19 12:38:22;;;;;;;4.68;2.60;;;19.60;61.90;;;;;;10480374;28;20044;-32
2022/11/19 12:43:51;;;;;;;6.20;2.35;;;19.60;61.60;;;;;;10488907;28;20040;-33
2022/11/19 12:49:08;;;;;;;3.78;2.72;;;19.60;61.50;;;;;;10483547;28;20090;-32
2022/11/19 12:54:26;;;;;;;3.17;2.72;;;19.70;61.30;;;;;;10488441;28;20158;-31
2022/11/19 12:59:44;;;;;;;5.88;2.40;;;19.60;61.50;;;;;;10489057;28;20090;-27
2022/11/19 13:04:51;;;;;;;11.30;3.08;;;19.70;61.20;;;;;;10489537;28;20060;-32
2022/11/19 13:10:01;;;;;;;4.03;2.55;;;19.70;61.20;;;;;;10487713;28;20131;-29
2022/11/19 13:15:09;;;;;;;4.00;2.55;;;19.70;61.30;;;;;;10483523;28;20102;-26
2022/11/19 13:20:17;;;;;;;5.18;2.63;;;19.70;61.20;;;;;;10485865;28;20051;-28
2022/11/19 13:25:24;;;;;;;9.23;3.22;;;19.70;61.00;;;;;;10487597;28;20139;-29
2022/11/19 13:30:30;;;;;;;4.13;3.15;;;19.70;61.00;;;;;;10487058;28;20045;-28
2022/11/19 13:35:38;;;;;;;4.22;2.70;;;19.70;60.90;;;;;;10486858;28;20072;-28
2022/11/19 13:40:45;;;;;;;3.20;2.45;;;19.80;61.00;;;;;;10492332;28;20045;-27
2022/11/19 13:45:55;;;;;;;4.03;2.50;;;19.80;60.80;;;;;;10487455;28;20052;-28
2022/11/19 13:51:01;;;;;;;4.85;3.10;;;19.80;60.70;;;;;;10485409;28;20661;-29
2022/11/19 13:56:11;;;;;;;4.60;2.92;;;19.80;60.70;;;;;;10478139;28;20052;-29
2022/11/19 14:01:38;;;;;;;4.93;2.75;;;19.80;60.50;;;;;;10485644;28;20123;-30
2022/11/19 14:07:00;;;;;;;7.95;2.45;;;19.80;60.60;;;;;;10479591;28;20072;-27
2022/11/19 14:12:34;;;;;;;8.75;2.70;;;19.80;60.70;;;;;;10467216;28;20135;-28
2022/11/19 14:28:42;;;;;;;4.57;2.50;;;19.80;60.10;;;;;;10474413;28;20048;-31
2022/11/19 14:34:02;;;;;;;4.73;2.97;;;19.80;60.00;;;;;;10488635;28;20435;-28
2022/11/19 14:39:13;;;;;;;4.70;2.80;;;19.80;60.00;;;;;;10488784;28;20413;-30
2022/11/19 14:44:36;;;;;;;4.25;2.50;;;19.80;60.10;;;;;;10480756;28;20444;-33
2022/11/19 14:49:38;;;;;;;4.00;2.20;;;19.80;60.00;;;;;;10480893;28;20420;-29
2022/11/19 14:54:44;;;;;;;2.80;2.30;;;19.80;60.00;;;;;;10489986;28;20097;-32
2022/11/19 14:59:50;;;;;;;3.65;2.75;;;19.80;60.00;;;;;;10481203;28;20443;-28
2022/11/19 15:04:56;;;;;;;4.15;2.97;;;19.80;59.90;;;;;;10481426;28;20152;-26
2022/11/19 15:10:08;;;;;;;2.95;1.95;;;19.80;60.00;;;;;;10487909;28;20048;-29
2022/11/19 15:15:37;;;;;;;3.55;2.42;;;19.80;59.80;;;;;;10480609;28;20518;-29
2022/11/19 15:20:55;;;;;;;3.85;2.40;;;19.80;60.00;;;;;;10484999;28;20098;-28
2022/11/19 15:26:09;;;;;;;2.63;2.00;;;19.80;59.80;;;;;;10491075;28;20090;-31
2022/11/19 15:31:28;;;;;;;5.72;2.45;;;19.80;59.80;;;;;;10494071;28;20131;-32
2022/11/19 15:36:32;;;;;;;5.32;2.42;;;19.80;59.70;;;;;;10486226;28;20148;-32
2022/11/19 15:41:38;;;;;;;3.70;2.47;;;19.80;59.70;;;;;;10494240;28;20090;-29
2022/11/19 15:46:47;;;;;;;2.50;1.92;;;19.80;59.60;;;;;;10493826;28;20091;-29
2022/11/19 15:52:02;;;;;;;2.63;2.10;;;19.80;59.60;;;;;;10488387;28;20098;-30
2022/11/19 15:57:06;;;;;;;6.07;2.03;;;19.80;59.50;;;;;;10488357;28;20052;-31
2022/11/19 16:02:19;;;;;;;5.18;2.40;;;19.80;59.80;;;;;;10481893;28;20466;-29
2022/11/19 16:07:24;;;;;;;2.75;2.20;;;19.80;60.20;;;;;;10494070;28;20465;-30
2022/11/19 16:17:49;;;;;;;4.10;2.10;;;19.90;60.80;;;;;;10492243;28;20056;-31
2022/11/19 16:22:56;;;;;;;3.53;2.30;;;19.80;61.10;;;;;;10499277;28;20106;-30
2022/11/19 16:28:02;;;;;;;3.17;1.80;;;19.90;61.10;;;;;;10484480;28;20052;-30
2022/11/19 16:33:05;;;;;;;4.97;1.95;;;19.90;61.30;;;;;;10485190;28;20072;-29
2022/11/19 16:38:15;;;;;;;3.38;1.70;;;19.90;61.40;;;;;;10498165;28;20475;-31
2022/11/19 16:43:18;;;;;;;3.47;1.63;;;19.90;61.40;;;;;;10486271;28;20052;-31
2022/11/19 16:53:51;;;;;;;2.22;1.70;;;20.10;61.00;;;;;;10497668;27;1534211;-29
2022/11/19 16:58:56;;;;;;;3.65;1.77;;;20.00;61.30;;;;;;10513963;28;20048;-26
2022/11/19 17:04:02;;;;;;;2.88;2.00;;;20.10;61.20;;;;;;10505654;28;20067;-29
2022/11/19 17:09:06;;;;;;;2.90;1.60;;;20.10;61.30;;;;;;10515168;28;20051;-29
2022/11/19 17:14:18;;;;;;;4.20;2.15;;;20.10;61.50;;;;;;10521116;28;20500;-29
2022/11/19 17:19:25;;;;;;;4.68;2.72;;;20.10;61.60;;;;;;10505751;28;20055;-30
2022/11/19 17:24:31;;;;;;;6.47;2.42;;;20.00;61.90;;;;;;10514370;28;20057;-30
2022/11/19 17:29:33;;;;;;;6.53;2.40;;;20.10;62.50;;;;;;10522684;28;20542;-31
2022/11/19 17:34:43;;;;;;;;;;;20.00;63.00;;;;;;10514523;28;20044;-34
2022/11/19 17:39:46;;;;;;;8.55;2.78;;;19.90;63.00;;;;;;10507055;28;19928;-31
2022/11/19 17:44:49;;;;;;;8.40;2.65;;;19.90;63.30;;;;;;10512613;28;20458;-28
2022/11/19 17:49:51;;;;;;;14.75;3.40;;;19.90;63.40;;;;;;10507321;28;20082;-27
2022/11/19 17:54:57;;;;;;;5.40;2.63;;;19.90;63.40;;;;;;10502010;28;20443;-29
2022/11/19 17:59:59;;;;;;;8.45;3.47;;;19.90;63.50;;;;;;10516582;28;20135;-28
2022/11/19 18:05:01;;;;;;;13.45;2.95;;;20.00;63.40;;;;;;10475785;28;20114;-27
2022/11/19 18:10:05;;;;;;;12.07;3.53;;;20.10;63.40;;;;;;10473017;28;20488;-29
2022/11/19 18:15:11;;;;;;;18.67;3.88;;;20.10;63.60;;;;;;10484675;28;20539;-32
2022/11/19 18:20:13;;;;;;;19.05;3.72;;;20.00;63.60;;;;;;10488374;28;20128;-30
2022/11/19 18:25:20;;;;;;;11.40;3.50;;;20.10;63.20;;;;;;10491689;28;20466;-30
2022/11/19 18:30:22;;;;;;;16.15;4.05;;;20.00;63.00;;;;;;10490162;28;20059;-33
2022/11/19 18:35:26;;;;;;;10.68;3.15;;;19.90;63.20;;;;;;10476523;28;20127;-31
2022/11/19 18:40:29;;;;;;;8.73;2.65;;;19.90;63.40;;;;;;10481946;28;20131;-33
2022/11/19 18:45:32;;;;;;;7.18;2.47;;;19.90;63.70;;;;;;10472501;28;20135;-26
2022/11/19 18:50:33;;;;;;;;;;;19.90;63.70;;;;;;10476204;28;20531;-29
2022/11/19 18:55:37;;;;;;;13.52;4.53;;;19.80;63.90;;;;;;10489105;28;19921;-32
2022/11/19 19:00:39;;;;;;;9.70;3.13;;;19.70;64.10;;;;;;10489904;28;20473;-33
2022/11/19 19:05:41;;;;;;;8.88;3.13;;;19.80;64.00;;;;;;10484708;28;20413;-32
2022/11/19 19:10:44;;;;;;;10.73;2.45;;;20.00;64.20;;;;;;10477816;28;20134;-28
2022/11/19 19:15:46;;;;;;;12.70;2.92;;;20.00;63.50;;;;;;10474732;28;20052;-37
2022/11/19 19:20:48;;;;;;;3.42;2.25;;;19.90;63.10;;;;;;10487196;28;20072;-31
2022/11/19 19:25:51;;;;;;;6.85;3.60;;;20.00;62.80;;;;;;10482459;28;20048;-30
2022/11/19 19:30:57;;;;;;;7.40;2.60;;;19.90;62.50;;;;;;10482169;28;20053;-29
2022/11/19 19:36:01;;;;;;;7.80;2.67;;;20.00;62.20;;;;;;10464926;28;20041;-29
2022/11/19 19:41:06;;;;;;;6.30;2.35;;;19.90;62.10;;;;;;10475921;28;20052;-28
2022/11/19 19:46:12;;;;;;;4.20;2.20;;;19.90;61.80;;;;;;10482668;28;20076;-30
2022/11/19 19:51:16;;;;;;;5.07;2.00;;;19.90;61.60;;;;;;10485634;28;20063;-30
2022/11/19 19:56:20;;;;;;;4.05;1.90;;;19.90;61.40;;;;;;10478642;28;20049;-29
2022/11/19 20:01:25;;;;;;;5.90;2.20;;;19.90;61.40;;;;;;10463221;28;20084;-30
2022/11/19 20:06:27;;;;;;;3.28;2.22;;;19.90;61.20;;;;;;10465006;28;20482;-31
2022/11/19 20:11:31;;;;;;;2.88;2.00;;;19.90;60.90;;;;;;10469333;28;20101;-29
2022/11/19 20:16:34;;;;;;;5.40;2.45;;;19.90;61.10;;;;;;10478505;28;20116;-29
2022/11/19 20:21:36;;;;;;;3.70;2.10;;;20.00;60.70;;;;;;10470346;28;20056;-28
2022/11/19 20:26:39;;;;;;;;;;;19.90;60.60;;;;;;10474501;28;20686;-30
2022/11/19 20:31:46;;;;;;;5.25;2.65;;;19.90;60.50;;;;;;10471732;28;19924;-29
2022/11/19 20:36:48;;;;;;;6.18;2.13;;;19.90;60.00;;;;;;10470516;28;20053;-30
2022/11/19 20:47:11;;;;;;;7.35;2.38;;;19.80;59.70;;;;;;10468150;28;20461;-29
2022/11/19 20:52:14;;;;;;;;;;;19.80;59.30;;;;;;10469314;28;20060;-28
2022/11/19 20:57:18;;;;;;;12.43;2.50;;;19.80;59.10;;;;;;10469610;28;19971;-29
2022/11/19 21:02:20;;;;;;;5.35;2.17;;;19.80;58.80;;;;;;10479265;28;20110;-27
2022/11/19 21:07:22;;;;;;;9.45;2.25;;;19.80;58.50;;;;;;10476015;28;20513;-30
2022/11/19 21:12:25;;;;;;;;;;;19.70;58.50;;;;;;10466956;28;20072;-28
2022/11/19 21:17:28;;;;;;;6.95;2.42;;;19.70;58.30;;;;;;10471537;28;20368;-29
2022/11/19 21:22:30;;;;;;;10.15;2.13;;;19.70;58.30;;;;;;10471593;28;20048;-30
2022/11/19 21:27:33;;;;;;;6.50;2.50;;;19.70;58.00;;;;;;10479525;28;20056;-29
2022/11/19 21:32:35;;;;;;;7.07;2.50;;;19.70;57.80;;;;;;10472013;28;20074;-28
2022/11/19 21:37:37;;;;;;;7.35;2.20;;;19.60;57.80;;;;;;10473829;28;20128;-28
2022/11/19 21:42:40;;;;;;;6.80;2.22;;;19.60;57.70;;;;;;10486351;28;20106;-28
2022/11/19 21:47:42;;;;;;;4.25;1.95;;;19.60;57.60;;;;;;10483860;28;20049;-27
2022/11/19 21:52:45;;;;;;;6.80;2.40;;;19.50;57.60;;;;;;10484268;28;20052;-28
2022/11/19 21:57:48;;;;;;;;;;;19.40;57.70;;;;;;10477095;28;20155;-28
2022/11/19 22:02:52;;;;;;;6.28;2.13;;;19.40;57.80;;;;;;10477428;28;20002;-29
2022/11/19 22:07:54;;;;;;;3.90;2.10;;;19.30;57.60;;;;;;10476074;28;20041;-28
2022/11/19 22:12:58;;;;;;;7.03;2.22;;;19.30;57.60;;;;;;10474519;28;20088;-29
2022/11/19 22:18:00;;;;;;;4.28;1.80;;;19.20;57.60;;;;;;10488564;28;20044;-32
2022/11/19 22:23:02;;;;;;;3.90;2.30;;;19.20;57.40;;;;;;10482625;28;20049;-30
2022/11/19 22:28:05;;;;;;;4.85;1.90;;;19.20;57.40;;;;;;10477896;28;20098;-29
2022/11/19 22:33:07;;;;;;;4.85;2.17;;;19.20;57.20;;;;;;10487062;28;20083;-34
2022/11/19 22:38:08;;;;;;;5.40;2.25;;;19.10;57.00;;;;;;10485962;28;20402;-34
2022/11/19 22:43:12;;;;;;;3.35;2.30;;;19.10;56.90;;;;;;10484623;28;20075;-28
2022/11/19 22:48:14;;;;;;;5.07;2.25;;;19.10;56.80;;;;;;10472425;28;20044;-31
2022/11/19 22:53:17;;;;;;;4.72;2.80;;;19.10;56.80;;;;;;10476427;28;20049;-28
2022/11/19 22:58:20;;;;;;;8.48;2.15;;;19.00;57.00;;;;;;10477298;28;20102;-28
2022/11/19 23:03:21;;;;;;;4.22;2.33;;;19.00;56.70;;;;;;10475057;28;20045;-29
2022/11/19 23:08:23;;;;;;;4.25;2.30;;;19.00;56.60;;;;;;10481119;28;20086;-30
2022/11/19 23:13:32;;;;;;;4.72;2.28;;;19.00;56.60;;;;;;10480301;28;20048;-31
2022/11/19 23:18:35;;;;;;;2.83;2.00;;;18.90;56.40;;;;;;10477600;28;20052;-27
2022/11/19 23:23:37;;;;;;;4.05;2.63;;;18.90;56.60;;;;;;10485945;28;20606;-33
2022/11/19 23:28:41;;;;;;;3.25;2.17;;;18.90;56.40;;;;;;10487208;28;20119;-30
2022/11/19 23:33:44;;;;;;;4.90;2.30;;;18.80;56.60;;;;;;10484314;28;20048;-31
2022/11/19 23:38:46;;;;;;;4.82;2.15;;;18.80;56.30;;;;;;10478394;28;20051;-28
2022/11/19 23:43:52;;;;;;;3.88;2.53;;;18.80;56.30;;;;;;10476715;28;20068;-30
2022/11/19 23:48:55;;;;;;;2.60;2.40;;;18.70;56.10;;;;;;10464420;28;20087;-28
2022/11/19 23:53:57;;;;;;;4.63;2.03;;;18.70;55.90;;;;;;10473082;28;20487;-28
2022/11/19 23:59:02;;;;;;;3.92;2.03;;;18.70;56.10;;;;;;10478722;28;20053;-29
